sensor_id;sensor_type;location;lat;lon;timestamp;P1;durP1;ratioP1;P2;durP2;ratioP2
55037;SDS011;40937;53.594;10.034;2024-02-23T00:02:02;1.25;;;0.50;;
55037;SDS011;40937;53.594;10.034;2024-02-23T00:04:29;1.38;;;0.80;;
55037;SDS011;40937;53.594;10.034;2024-02-23T00:06:57;1.27;;;0.57;;
55037;SDS011;40937;53.594;10.034;2024-02-23T00:09:24;1.17;;;0.82;;
55037;SDS011;40937;53.594;10.034;2024-02-23T00:11:52;1.45;;;0.77;;
55037;SDS011;40937;53.594;10.034;2024-02-23T00:14:19;1.85;;;0.88;;
55037;SDS011;40937;53.594;10.034;2024-02-23T00:16:47;2.10;;;1.23;;
55037;SDS011;40937;53.594;10.034;2024-02-23T00:19:15;1.48;;;0.80;;
55037;SDS011;40937;53.594;10.034;2024-02-23T00:21:45;1.52;;;0.75;;
55037;SDS011;40937;53.594;10.034;2024-02-23T00:24:15;3.08;;;1.00;;
55037;SDS011;40937;53.594;10.034;2024-02-23T00:26:43;1.05;;;0.50;;
55037;SDS011;40937;53.594;10.034;2024-02-23T00:29:10;2.00;;;0.90;;
55037;SDS011;40937;53.594;10.034;2024-02-23T00:31:37;1.83;;;1.10;;
55037;SDS011;40937;53.594;10.034;2024-02-23T00:34:06;0.70;;;0.57;;
55037;SDS011;40937;53.594;10.034;2024-02-23T00:36:37;1.83;;;0.60;;
55037;SDS011;40937;53.594;10.034;2024-02-23T00:39:05;6.82;;;1.15;;
55037;SDS011;40937;53.594;10.034;2024-02-23T00:41:33;1.02;;;0.60;;
55037;SDS011;40937;53.594;10.034;2024-02-23T00:44:00;1.85;;;0.80;;
55037;SDS011;40937;53.594;10.034;2024-02-23T00:46:27;1.10;;;0.70;;
55037;SDS011;40937;53.594;10.034;2024-02-23T00:48:54;4.80;;;0.75;;
55037;SDS011;40937;53.594;10.034;2024-02-23T00:51:21;1.10;;;0.80;;
55037;SDS011;40937;53.594;10.034;2024-02-23T00:53:50;1.05;;;0.70;;
55037;SDS011;40937;53.594;10.034;2024-02-23T00:56:17;3.67;;;0.40;;
55037;SDS011;40937;53.594;10.034;2024-02-23T00:58:44;0.55;;;0.40;;
55037;SDS011;40937;53.594;10.034;2024-02-23T01:01:11;0.65;;;0.40;;
55037;SDS011;40937;53.594;10.034;2024-02-23T01:03:39;0.20;;;0.20;;
55037;SDS011;40937;53.594;10.034;2024-02-23T01:06:06;2.42;;;0.38;;
55037;SDS011;40937;53.594;10.034;2024-02-23T01:08:33;1.52;;;0.45;;
55037;SDS011;40937;53.594;10.034;2024-02-23T01:11:02;0.63;;;0.30;;
55037;SDS011;40937;53.594;10.034;2024-02-23T01:13:30;0.50;;;0.22;;
55037;SDS011;40937;53.594;10.034;2024-02-23T01:15:57;0.55;;;0.30;;
55037;SDS011;40937;53.594;10.034;2024-02-23T01:18:24;0.85;;;0.50;;
55037;SDS011;40937;53.594;10.034;2024-02-23T01:20:51;2.92;;;0.40;;
55037;SDS011;40937;53.594;10.034;2024-02-23T01:23:18;0.40;;;0.40;;
55037;SDS011;40937;53.594;10.034;2024-02-23T01:25:46;2.45;;;0.47;;
55037;SDS011;40937;53.594;10.034;2024-02-23T01:28:14;0.52;;;0.35;;
55037;SDS011;40937;53.594;10.034;2024-02-23T01:30:41;0.52;;;0.38;;
55037;SDS011;40937;53.594;10.034;2024-02-23T01:33:08;1.00;;;0.40;;
55037;SDS011;40937;53.594;10.034;2024-02-23T01:35:36;0.75;;;0.52;;
55037;SDS011;40937;53.594;10.034;2024-02-23T01:38:03;0.20;;;0.20;;
55037;SDS011;40937;53.594;10.034;2024-02-23T01:40:30;0.20;;;0.20;;
55037;SDS011;40937;53.594;10.034;2024-02-23T01:43:01;1.27;;;0.47;;
55037;SDS011;40937;53.594;10.034;2024-02-23T01:45:30;0.77;;;0.25;;
55037;SDS011;40937;53.594;10.034;2024-02-23T01:47:58;0.88;;;0.35;;
55037;SDS011;40937;53.594;10.034;2024-02-23T01:50:26;0.70;;;0.70;;
55037;SDS011;40937;53.594;10.034;2024-02-23T01:52:54;0.50;;;0.40;;
55037;SDS011;40937;53.594;10.034;2024-02-23T01:55:23;0.45;;;0.30;;
55037;SDS011;40937;53.594;10.034;2024-02-23T01:57:50;0.32;;;0.30;;
55037;SDS011;40937;53.594;10.034;2024-02-23T02:00:18;0.20;;;0.20;;
55037;SDS011;40937;53.594;10.034;2024-02-23T02:02:56;0.17;;;0.17;;
55037;SDS011;40937;53.594;10.034;2024-02-23T02:05:24;0.17;;;0.17;;
55037;SDS011;40937;53.594;10.034;2024-02-23T02:07:51;0.65;;;0.40;;
55037;SDS011;40937;53.594;10.034;2024-02-23T02:10:24;0.35;;;0.25;;
55037;SDS011;40937;53.594;10.034;2024-02-23T02:12:51;1.77;;;0.50;;
55037;SDS011;40937;53.594;10.034;2024-02-23T02:15:19;0.57;;;0.30;;
55037;SDS011;40937;53.594;10.034;2024-02-23T02:17:47;0.20;;;0.20;;
55037;SDS011;40937;53.594;10.034;2024-02-23T02:20:16;0.20;;;0.20;;
55037;SDS011;40937;53.594;10.034;2024-02-23T02:22:45;0.38;;;0.20;;
55037;SDS011;40937;53.594;10.034;2024-02-23T02:25:13;0.20;;;0.20;;
55037;SDS011;40937;53.594;10.034;2024-02-23T02:27:41;0.25;;;0.25;;
55037;SDS011;40937;53.594;10.034;2024-02-23T02:30:11;0.38;;;0.15;;
55037;SDS011;40937;53.594;10.034;2024-02-23T02:32:38;0.68;;;0.20;;
55037;SDS011;40937;53.594;10.034;2024-02-23T02:35:06;0.22;;;0.20;;
55037;SDS011;40937;53.594;10.034;2024-02-23T02:37:35;0.10;;;0.10;;
55037;SDS011;40937;53.594;10.034;2024-02-23T02:40:03;0.35;;;0.20;;
55037;SDS011;40937;53.594;10.034;2024-02-23T02:42:30;0.20;;;0.20;;
55037;SDS011;40937;53.594;10.034;2024-02-23T02:44:57;0.20;;;0.20;;
55037;SDS011;40937;53.594;10.034;2024-02-23T02:47:25;0.30;;;0.30;;
55037;SDS011;40937;53.594;10.034;2024-02-23T02:49:52;0.10;;;0.10;;
55037;SDS011;40937;53.594;10.034;2024-02-23T02:52:19;0.30;;;0.20;;
55037;SDS011;40937;53.594;10.034;2024-02-23T02:54:50;0.47;;;0.10;;
55037;SDS011;40937;53.594;10.034;2024-02-23T02:57:17;0.63;;;0.20;;
55037;SDS011;40937;53.594;10.034;2024-02-23T02:59:44;0.50;;;0.20;;
55037;SDS011;40937;53.594;10.034;2024-02-23T03:02:11;0.35;;;0.15;;
55037;SDS011;40937;53.594;10.034;2024-02-23T03:04:39;0.10;;;0.10;;
55037;SDS011;40937;53.594;10.034;2024-02-23T03:07:06;0.30;;;0.30;;
55037;SDS011;40937;53.594;10.034;2024-02-23T03:09:33;0.47;;;0.25;;
55037;SDS011;40937;53.594;10.034;2024-02-23T03:12:01;0.30;;;0.20;;
55037;SDS011;40937;53.594;10.034;2024-02-23T03:14:29;0.35;;;0.35;;
55037;SDS011;40937;53.594;10.034;2024-02-23T03:16:56;1.17;;;0.40;;
55037;SDS011;40937;53.594;10.034;2024-02-23T03:19:23;3.40;;;0.40;;
55037;SDS011;40937;53.594;10.034;2024-02-23T03:21:51;0.30;;;0.30;;
55037;SDS011;40937;53.594;10.034;2024-02-23T03:24:18;0.43;;;0.30;;
55037;SDS011;40937;53.594;10.034;2024-02-23T03:26:45;0.55;;;0.40;;
55037;SDS011;40937;53.594;10.034;2024-02-23T03:29:14;0.93;;;0.50;;
55037;SDS011;40937;53.594;10.034;2024-02-23T03:31:41;0.68;;;0.60;;
55037;SDS011;40937;53.594;10.034;2024-02-23T03:34:08;0.45;;;0.40;;
55037;SDS011;40937;53.594;10.034;2024-02-23T03:36:36;1.98;;;0.82;;
55037;SDS011;40937;53.594;10.034;2024-02-23T03:39:03;1.23;;;0.55;;
55037;SDS011;40937;53.594;10.034;2024-02-23T03:41:31;0.50;;;0.50;;
55037;SDS011;40937;53.594;10.034;2024-02-23T03:43:58;0.73;;;0.73;;
55037;SDS011;40937;53.594;10.034;2024-02-23T03:46:26;0.82;;;0.50;;
55037;SDS011;40937;53.594;10.034;2024-02-23T03:48:54;2.75;;;0.73;;
55037;SDS011;40937;53.594;10.034;2024-02-23T03:51:21;1.33;;;0.50;;
55037;SDS011;40937;53.594;10.034;2024-02-23T03:53:48;0.95;;;0.70;;
55037;SDS011;40937;53.594;10.034;2024-02-23T03:56:15;1.58;;;0.55;;
55037;SDS011;40937;53.594;10.034;2024-02-23T03:58:42;0.50;;;0.47;;
55037;SDS011;40937;53.594;10.034;2024-02-23T04:01:10;0.77;;;0.55;;
55037;SDS011;40937;53.594;10.034;2024-02-23T04:03:38;1.17;;;0.70;;
55037;SDS011;40937;53.594;10.034;2024-02-23T04:06:06;2.75;;;0.68;;
55037;SDS011;40937;53.594;10.034;2024-02-23T04:08:33;1.33;;;0.55;;
55037;SDS011;40937;53.594;10.034;2024-02-23T04:11:01;0.57;;;0.57;;
55037;SDS011;40937;53.594;10.034;2024-02-23T04:13:28;1.73;;;0.75;;
55037;SDS011;40937;53.594;10.034;2024-02-23T04:15:55;0.93;;;0.73;;
55037;SDS011;40937;53.594;10.034;2024-02-23T04:18:23;1.00;;;0.50;;
55037;SDS011;40937;53.594;10.034;2024-02-23T04:20:52;0.75;;;0.55;;
55037;SDS011;40937;53.594;10.034;2024-02-23T04:23:19;0.73;;;0.50;;
55037;SDS011;40937;53.594;10.034;2024-02-23T04:25:46;2.10;;;0.68;;
55037;SDS011;40937;53.594;10.034;2024-02-23T04:28:14;0.60;;;0.57;;
55037;SDS011;40937;53.594;10.034;2024-02-23T04:30:41;2.67;;;0.85;;
55037;SDS011;40937;53.594;10.034;2024-02-23T04:33:08;2.85;;;0.90;;
55037;SDS011;40937;53.594;10.034;2024-02-23T04:35:35;1.90;;;0.82;;
55037;SDS011;40937;53.594;10.034;2024-02-23T04:38:04;1.75;;;0.90;;
55037;SDS011;40937;53.594;10.034;2024-02-23T04:40:31;2.20;;;0.70;;
55037;SDS011;40937;53.594;10.034;2024-02-23T04:42:58;1.30;;;0.80;;
55037;SDS011;40937;53.594;10.034;2024-02-23T04:45:25;2.28;;;1.20;;
55037;SDS011;40937;53.594;10.034;2024-02-23T04:47:52;1.45;;;0.80;;
55037;SDS011;40937;53.594;10.034;2024-02-23T04:50:19;3.42;;;0.88;;
55037;SDS011;40937;53.594;10.034;2024-02-23T04:52:46;2.47;;;1.17;;
55037;SDS011;40937;53.594;10.034;2024-02-23T04:55:15;6.68;;;0.90;;
55037;SDS011;40937;53.594;10.034;2024-02-23T04:57:42;1.08;;;0.50;;
55037;SDS011;40937;53.594;10.034;2024-02-23T05:00:10;2.25;;;0.82;;
55037;SDS011;40937;53.594;10.034;2024-02-23T05:02:38;5.50;;;1.50;;
55037;SDS011;40937;53.594;10.034;2024-02-23T05:05:05;2.95;;;1.15;;
55037;SDS011;40937;53.594;10.034;2024-02-23T05:07:33;1.33;;;1.10;;
55037;SDS011;40937;53.594;10.034;2024-02-23T05:10:01;3.08;;;1.55;;
55037;SDS011;40937;53.594;10.034;2024-02-23T05:12:31;4.32;;;1.55;;
55037;SDS011;40937;53.594;10.034;2024-02-23T05:14:58;5.88;;;1.40;;
55037;SDS011;40937;53.594;10.034;2024-02-23T05:17:25;5.85;;;1.60;;
55037;SDS011;40937;53.594;10.034;2024-02-23T05:19:52;3.72;;;1.20;;
55037;SDS011;40937;53.594;10.034;2024-02-23T05:22:20;3.88;;;1.40;;
55037;SDS011;40937;53.594;10.034;2024-02-23T05:24:47;4.95;;;1.58;;
55037;SDS011;40937;53.594;10.034;2024-02-23T05:27:14;6.25;;;1.70;;
55037;SDS011;40937;53.594;10.034;2024-02-23T05:29:42;5.40;;;1.40;;
55037;SDS011;40937;53.594;10.034;2024-02-23T05:32:10;3.85;;;1.35;;
55037;SDS011;40937;53.594;10.034;2024-02-23T05:34:37;8.02;;;1.75;;
55037;SDS011;40937;53.594;10.034;2024-02-23T05:37:04;3.10;;;1.48;;
55037;SDS011;40937;53.594;10.034;2024-02-23T05:39:31;3.22;;;1.48;;
55037;SDS011;40937;53.594;10.034;2024-02-23T05:41:59;7.38;;;1.83;;
55037;SDS011;40937;53.594;10.034;2024-02-23T05:44:26;3.75;;;1.70;;
55037;SDS011;40937;53.594;10.034;2024-02-23T05:46:55;6.47;;;1.85;;
55037;SDS011;40937;53.594;10.034;2024-02-23T05:49:22;5.82;;;1.52;;
55037;SDS011;40937;53.594;10.034;2024-02-23T05:51:49;10.50;;;1.95;;
55037;SDS011;40937;53.594;10.034;2024-02-23T05:54:17;4.03;;;1.48;;
55037;SDS011;40937;53.594;10.034;2024-02-23T05:56:44;8.48;;;1.55;;
55037;SDS011;40937;53.594;10.034;2024-02-23T05:59:12;6.38;;;1.73;;
55037;SDS011;40937;53.594;10.034;2024-02-23T06:01:39;1.60;;;1.25;;
55037;SDS011;40937;53.594;10.034;2024-02-23T06:04:08;3.28;;;1.20;;
55037;SDS011;40937;53.594;10.034;2024-02-23T06:06:35;6.35;;;1.35;;
55037;SDS011;40937;53.594;10.034;2024-02-23T06:09:02;4.55;;;1.40;;
55037;SDS011;40937;53.594;10.034;2024-02-23T06:11:31;4.60;;;1.20;;
55037;SDS011;40937;53.594;10.034;2024-02-23T06:13:58;10.07;;;1.83;;
55037;SDS011;40937;53.594;10.034;2024-02-23T06:16:25;3.47;;;1.10;;
55037;SDS011;40937;53.594;10.034;2024-02-23T06:18:52;4.53;;;1.05;;
55037;SDS011;40937;53.594;10.034;2024-02-23T06:21:21;4.00;;;1.30;;
55037;SDS011;40937;53.594;10.034;2024-02-23T06:23:48;2.55;;;1.30;;
55037;SDS011;40937;53.594;10.034;2024-02-23T06:26:15;1.73;;;0.90;;
55037;SDS011;40937;53.594;10.034;2024-02-23T06:28:44;3.75;;;1.48;;
55037;SDS011;40937;53.594;10.034;2024-02-23T06:31:12;2.42;;;1.20;;
55037;SDS011;40937;53.594;10.034;2024-02-23T06:33:39;1.33;;;1.10;;
55037;SDS011;40937;53.594;10.034;2024-02-23T06:36:07;2.72;;;1.20;;
55037;SDS011;40937;53.594;10.034;2024-02-23T06:38:37;2.70;;;1.08;;
55037;SDS011;40937;53.594;10.034;2024-02-23T06:41:04;6.35;;;1.45;;
55037;SDS011;40937;53.594;10.034;2024-02-23T06:43:32;4.25;;;1.30;;
55037;SDS011;40937;53.594;10.034;2024-02-23T06:46:03;1.73;;;1.23;;
55037;SDS011;40937;53.594;10.034;2024-02-23T06:48:31;4.35;;;1.35;;
55037;SDS011;40937;53.594;10.034;2024-02-23T06:50:58;3.40;;;1.27;;
55037;SDS011;40937;53.594;10.034;2024-02-23T06:53:25;3.33;;;1.33;;
55037;SDS011;40937;53.594;10.034;2024-02-23T06:55:54;2.13;;;1.10;;
55037;SDS011;40937;53.594;10.034;2024-02-23T06:58:21;3.38;;;1.50;;
55037;SDS011;40937;53.594;10.034;2024-02-23T07:00:49;2.60;;;1.10;;
55037;SDS011;40937;53.594;10.034;2024-02-23T07:03:16;4.13;;;1.40;;
55037;SDS011;40937;53.594;10.034;2024-02-23T07:05:43;4.50;;;1.52;;
55037;SDS011;40937;53.594;10.034;2024-02-23T07:08:10;7.72;;;1.63;;
55037;SDS011;40937;53.594;10.034;2024-02-23T07:10:38;3.15;;;1.45;;
55037;SDS011;40937;53.594;10.034;2024-02-23T07:13:07;3.70;;;1.85;;
55037;SDS011;40937;53.594;10.034;2024-02-23T07:15:34;3.22;;;1.42;;
55037;SDS011;40937;53.594;10.034;2024-02-23T07:18:03;5.50;;;1.40;;
55037;SDS011;40937;53.594;10.034;2024-02-23T07:20:30;4.85;;;1.55;;
55037;SDS011;40937;53.594;10.034;2024-02-23T07:22:58;5.88;;;1.80;;
55037;SDS011;40937;53.594;10.034;2024-02-23T07:25:25;2.83;;;1.83;;
55037;SDS011;40937;53.594;10.034;2024-02-23T07:27:52;2.70;;;1.52;;
55037;SDS011;40937;53.594;10.034;2024-02-23T07:30:21;7.85;;;1.63;;
55037;SDS011;40937;53.594;10.034;2024-02-23T07:32:48;3.75;;;1.67;;
55037;SDS011;40937;53.594;10.034;2024-02-23T07:35:15;5.88;;;1.63;;
55037;SDS011;40937;53.594;10.034;2024-02-23T07:37:43;5.07;;;2.00;;
55037;SDS011;40937;53.594;10.034;2024-02-23T07:40:10;4.38;;;1.83;;
55037;SDS011;40937;53.594;10.034;2024-02-23T07:42:38;3.40;;;2.00;;
55037;SDS011;40937;53.594;10.034;2024-02-23T07:45:06;9.25;;;1.77;;
55037;SDS011;40937;53.594;10.034;2024-02-23T07:47:36;5.07;;;2.08;;
55037;SDS011;40937;53.594;10.034;2024-02-23T07:50:03;2.13;;;1.50;;
55037;SDS011;40937;53.594;10.034;2024-02-23T07:52:31;7.75;;;2.40;;
55037;SDS011;40937;53.594;10.034;2024-02-23T07:54:58;6.90;;;2.42;;
55037;SDS011;40937;53.594;10.034;2024-02-23T07:57:28;3.47;;;1.52;;
55037;SDS011;40937;53.594;10.034;2024-02-23T07:59:57;5.65;;;2.00;;
55037;SDS011;40937;53.594;10.034;2024-02-23T08:02:24;3.88;;;1.90;;
55037;SDS011;40937;53.594;10.034;2024-02-23T08:04:52;4.32;;;2.00;;
55037;SDS011;40937;53.594;10.034;2024-02-23T08:07:20;7.13;;;2.13;;
55037;SDS011;40937;53.594;10.034;2024-02-23T08:09:48;6.78;;;2.60;;
55037;SDS011;40937;53.594;10.034;2024-02-23T08:12:15;7.40;;;1.83;;
55037;SDS011;40937;53.594;10.034;2024-02-23T08:14:42;6.30;;;2.13;;
55037;SDS011;40937;53.594;10.034;2024-02-23T08:17:11;4.60;;;1.50;;
55037;SDS011;40937;53.594;10.034;2024-02-23T08:19:39;3.60;;;1.88;;
55037;SDS011;40937;53.594;10.034;2024-02-23T08:22:08;5.75;;;2.42;;
55037;SDS011;40937;53.594;10.034;2024-02-23T08:24:35;6.10;;;2.03;;
55037;SDS011;40937;53.594;10.034;2024-02-23T08:27:02;4.97;;;2.10;;
55037;SDS011;40937;53.594;10.034;2024-02-23T08:29:30;7.85;;;2.30;;
55037;SDS011;40937;53.594;10.034;2024-02-23T08:31:57;11.13;;;2.03;;
55037;SDS011;40937;53.594;10.034;2024-02-23T08:34:24;5.60;;;2.00;;
55037;SDS011;40937;53.594;10.034;2024-02-23T08:36:51;5.82;;;2.05;;
55037;SDS011;40937;53.594;10.034;2024-02-23T08:39:20;4.93;;;2.00;;
55037;SDS011;40937;53.594;10.034;2024-02-23T08:41:48;4.25;;;1.70;;
55037;SDS011;40937;53.594;10.034;2024-02-23T08:44:17;5.63;;;1.95;;
55037;SDS011;40937;53.594;10.034;2024-02-23T08:46:44;4.82;;;1.33;;
55037;SDS011;40937;53.594;10.034;2024-02-23T08:49:12;4.95;;;1.95;;
55037;SDS011;40937;53.594;10.034;2024-02-23T08:51:41;6.43;;;1.98;;
55037;SDS011;40937;53.594;10.034;2024-02-23T08:54:09;7.82;;;2.33;;
55037;SDS011;40937;53.594;10.034;2024-02-23T08:56:40;4.68;;;1.90;;
55037;SDS011;40937;53.594;10.034;2024-02-23T08:59:08;5.60;;;1.40;;
55037;SDS011;40937;53.594;10.034;2024-02-23T09:01:35;6.10;;;2.55;;
55037;SDS011;40937;53.594;10.034;2024-02-23T09:04:03;4.60;;;1.65;;
55037;SDS011;40937;53.594;10.034;2024-02-23T09:06:30;6.40;;;1.80;;
55037;SDS011;40937;53.594;10.034;2024-02-23T09:08:58;6.40;;;1.90;;
55037;SDS011;40937;53.594;10.034;2024-02-23T09:11:26;4.05;;;1.73;;
55037;SDS011;40937;53.594;10.034;2024-02-23T09:13:54;5.68;;;2.03;;
55037;SDS011;40937;53.594;10.034;2024-02-23T09:16:22;1.80;;;1.30;;
55037;SDS011;40937;53.594;10.034;2024-02-23T09:18:50;4.15;;;1.50;;
55037;SDS011;40937;53.594;10.034;2024-02-23T09:21:17;7.18;;;2.08;;
55037;SDS011;40937;53.594;10.034;2024-02-23T09:23:45;4.43;;;1.85;;
55037;SDS011;40937;53.594;10.034;2024-02-23T09:26:12;7.85;;;1.88;;
55037;SDS011;40937;53.594;10.034;2024-02-23T09:28:39;5.10;;;1.38;;
55037;SDS011;40937;53.594;10.034;2024-02-23T09:31:09;4.47;;;1.83;;
55037;SDS011;40937;53.594;10.034;2024-02-23T09:33:36;5.10;;;1.55;;
55037;SDS011;40937;53.594;10.034;2024-02-23T09:36:04;7.40;;;1.90;;
55037;SDS011;40937;53.594;10.034;2024-02-23T09:38:32;2.63;;;1.52;;
55037;SDS011;40937;53.594;10.034;2024-02-23T09:40:59;4.55;;;1.73;;
55037;SDS011;40937;53.594;10.034;2024-02-23T09:43:27;5.65;;;1.50;;
55037;SDS011;40937;53.594;10.034;2024-02-23T09:45:57;7.53;;;1.90;;
55037;SDS011;40937;53.594;10.034;2024-02-23T09:48:26;6.38;;;1.90;;
55037;SDS011;40937;53.594;10.034;2024-02-23T09:50:55;4.05;;;1.95;;
55037;SDS011;40937;53.594;10.034;2024-02-23T09:53:24;6.57;;;1.73;;
55037;SDS011;40937;53.594;10.034;2024-02-23T09:55:51;4.80;;;1.83;;
55037;SDS011;40937;53.594;10.034;2024-02-23T09:58:20;7.05;;;1.75;;
55037;SDS011;40937;53.594;10.034;2024-02-23T10:00:49;5.32;;;1.73;;
55037;SDS011;40937;53.594;10.034;2024-02-23T10:03:17;4.28;;;1.65;;
55037;SDS011;40937;53.594;10.034;2024-02-23T10:05:46;2.45;;;1.35;;
55037;SDS011;40937;53.594;10.034;2024-02-23T10:08:13;7.07;;;1.73;;
55037;SDS011;40937;53.594;10.034;2024-02-23T10:10:40;6.30;;;1.63;;
55037;SDS011;40937;53.594;10.034;2024-02-23T10:13:08;8.20;;;1.90;;
55037;SDS011;40937;53.594;10.034;2024-02-23T10:15:35;5.57;;;1.95;;
55037;SDS011;40937;53.594;10.034;2024-02-23T10:18:02;5.53;;;1.95;;
55037;SDS011;40937;53.594;10.034;2024-02-23T10:20:30;5.90;;;1.60;;
55037;SDS011;40937;53.594;10.034;2024-02-23T10:22:59;6.38;;;1.70;;
55037;SDS011;40937;53.594;10.034;2024-02-23T10:25:26;8.45;;;1.80;;
55037;SDS011;40937;53.594;10.034;2024-02-23T10:27:54;8.80;;;1.95;;
55037;SDS011;40937;53.594;10.034;2024-02-23T10:30:22;5.20;;;1.70;;
55037;SDS011;40937;53.594;10.034;2024-02-23T10:32:50;25.20;;;2.55;;
55037;SDS011;40937;53.594;10.034;2024-02-23T10:35:23;6.20;;;1.70;;
55037;SDS011;40937;53.594;10.034;2024-02-23T10:37:51;6.28;;;1.90;;
55037;SDS011;40937;53.594;10.034;2024-02-23T10:40:21;6.72;;;1.67;;
55037;SDS011;40937;53.594;10.034;2024-02-23T10:42:49;7.35;;;1.98;;
55037;SDS011;40937;53.594;10.034;2024-02-23T10:45:20;5.05;;;1.83;;
55037;SDS011;40937;53.594;10.034;2024-02-23T10:47:48;4.70;;;1.98;;
55037;SDS011;40937;53.594;10.034;2024-02-23T10:50:17;5.50;;;1.55;;
55037;SDS011;40937;53.594;10.034;2024-02-23T10:52:45;4.63;;;1.92;;
55037;SDS011;40937;53.594;10.034;2024-02-23T10:55:14;7.03;;;1.65;;
55037;SDS011;40937;53.594;10.034;2024-02-23T10:57:43;7.53;;;2.00;;
55037;SDS011;40937;53.594;10.034;2024-02-23T11:00:11;6.55;;;1.75;;
55037;SDS011;40937;53.594;10.034;2024-02-23T11:02:41;9.13;;;2.28;;
55037;SDS011;40937;53.594;10.034;2024-02-23T11:05:12;4.32;;;1.52;;
55037;SDS011;40937;53.594;10.034;2024-02-23T11:07:42;6.75;;;1.52;;
55037;SDS011;40937;53.594;10.034;2024-02-23T11:10:12;3.60;;;1.55;;
55037;SDS011;40937;53.594;10.034;2024-02-23T11:12:40;5.68;;;1.95;;
55037;SDS011;40937;53.594;10.034;2024-02-23T11:15:09;8.02;;;1.48;;
55037;SDS011;40937;53.594;10.034;2024-02-23T11:17:55;4.03;;;1.92;;
55037;SDS011;40937;53.594;10.034;2024-02-23T11:20:22;6.45;;;1.60;;
55037;SDS011;40937;53.594;10.034;2024-02-23T11:22:52;4.65;;;1.35;;
55037;SDS011;40937;53.594;10.034;2024-02-23T11:25:20;2.38;;;1.35;;
55037;SDS011;40937;53.594;10.034;2024-02-23T11:27:53;5.63;;;1.55;;
55037;SDS011;40937;53.594;10.034;2024-02-23T11:30:22;2.78;;;1.98;;
55037;SDS011;40937;53.594;10.034;2024-02-23T11:32:53;3.78;;;1.65;;
55037;SDS011;40937;53.594;10.034;2024-02-23T11:35:26;5.20;;;1.83;;
55037;SDS011;40937;53.594;10.034;2024-02-23T11:37:55;3.67;;;1.60;;
55037;SDS011;40937;53.594;10.034;2024-02-23T11:40:25;5.25;;;1.63;;
55037;SDS011;40937;53.594;10.034;2024-02-23T11:42:56;8.95;;;1.17;;
55037;SDS011;40937;53.594;10.034;2024-02-23T11:45:30;3.67;;;1.27;;
55037;SDS011;40937;53.594;10.034;2024-02-23T11:47:57;4.53;;;1.35;;
55037;SDS011;40937;53.594;10.034;2024-02-23T11:50:26;3.85;;;1.42;;
55037;SDS011;40937;53.594;10.034;2024-02-23T11:52:54;3.35;;;1.60;;
55037;SDS011;40937;53.594;10.034;2024-02-23T11:55:27;5.60;;;1.60;;
55037;SDS011;40937;53.594;10.034;2024-02-23T11:57:55;4.90;;;1.83;;
55037;SDS011;40937;53.594;10.034;2024-02-23T12:00:23;4.40;;;1.58;;
55037;SDS011;40937;53.594;10.034;2024-02-23T12:02:57;5.40;;;1.48;;
55037;SDS011;40937;53.594;10.034;2024-02-23T12:05:25;4.45;;;1.33;;
55037;SDS011;40937;53.594;10.034;2024-02-23T12:07:54;9.40;;;1.42;;
55037;SDS011;40937;53.594;10.034;2024-02-23T12:10:22;1.83;;;1.20;;
55037;SDS011;40937;53.594;10.034;2024-02-23T12:12:51;1.83;;;0.80;;
55037;SDS011;40937;53.594;10.034;2024-02-23T12:15:20;6.72;;;1.83;;
55037;SDS011;40937;53.594;10.034;2024-02-23T12:17:48;3.22;;;1.25;;
55037;SDS011;40937;53.594;10.034;2024-02-23T12:20:20;5.55;;;1.35;;
55037;SDS011;40937;53.594;10.034;2024-02-23T12:22:49;5.78;;;1.35;;
55037;SDS011;40937;53.594;10.034;2024-02-23T12:25:17;3.08;;;1.35;;
55037;SDS011;40937;53.594;10.034;2024-02-23T12:27:45;4.00;;;1.70;;
55037;SDS011;40937;53.594;10.034;2024-02-23T12:30:16;2.88;;;1.40;;
55037;SDS011;40937;53.594;10.034;2024-02-23T12:32:43;2.95;;;1.27;;
55037;SDS011;40937;53.594;10.034;2024-02-23T12:35:10;5.88;;;1.30;;
55037;SDS011;40937;53.594;10.034;2024-02-23T12:37:40;3.30;;;1.35;;
55037;SDS011;40937;53.594;10.034;2024-02-23T12:40:08;4.32;;;1.23;;
55037;SDS011;40937;53.594;10.034;2024-02-23T12:42:36;2.80;;;1.33;;
55037;SDS011;40937;53.594;10.034;2024-02-23T12:45:11;2.15;;;1.13;;
55037;SDS011;40937;53.594;10.034;2024-02-23T12:47:38;3.85;;;1.75;;
55037;SDS011;40937;53.594;10.034;2024-02-23T12:50:06;3.97;;;1.15;;
55037;SDS011;40937;53.594;10.034;2024-02-23T12:52:35;3.15;;;1.40;;
55037;SDS011;40937;53.594;10.034;2024-02-23T12:55:04;2.53;;;1.20;;
55037;SDS011;40937;53.594;10.034;2024-02-23T12:57:31;7.00;;;1.30;;
55037;SDS011;40937;53.594;10.034;2024-02-23T12:59:59;1.73;;;1.20;;
55037;SDS011;40937;53.594;10.034;2024-02-23T13:02:34;4.65;;;2.45;;
55037;SDS011;40937;53.594;10.034;2024-02-23T13:05:02;4.45;;;1.23;;
55037;SDS011;40937;53.594;10.034;2024-02-23T13:07:30;3.92;;;1.40;;
55037;SDS011;40937;53.594;10.034;2024-02-23T13:09:57;3.63;;;1.30;;
55037;SDS011;40937;53.594;10.034;2024-02-23T13:12:28;1.98;;;1.20;;
55037;SDS011;40937;53.594;10.034;2024-02-23T13:14:59;4.78;;;1.27;;
55037;SDS011;40937;53.594;10.034;2024-02-23T13:17:27;2.85;;;1.00;;
55037;SDS011;40937;53.594;10.034;2024-02-23T13:19:55;2.78;;;1.23;;
55037;SDS011;40937;53.594;10.034;2024-02-23T13:22:22;3.60;;;1.48;;
55037;SDS011;40937;53.594;10.034;2024-02-23T13:24:54;6.68;;;1.30;;
55037;SDS011;40937;53.594;10.034;2024-02-23T13:27:21;3.22;;;1.20;;
55037;SDS011;40937;53.594;10.034;2024-02-23T13:29:53;4.65;;;1.27;;
55037;SDS011;40937;53.594;10.034;2024-02-23T13:32:20;2.85;;;1.20;;
55037;SDS011;40937;53.594;10.034;2024-02-23T13:34:47;3.30;;;1.10;;
55037;SDS011;40937;53.594;10.034;2024-02-23T13:37:18;2.08;;;1.17;;
55037;SDS011;40937;53.594;10.034;2024-02-23T13:39:47;4.50;;;1.60;;
55037;SDS011;40937;53.594;10.034;2024-02-23T13:42:15;2.03;;;1.48;;
55037;SDS011;40937;53.594;10.034;2024-02-23T13:44:46;2.70;;;1.10;;
55037;SDS011;40937;53.594;10.034;2024-02-23T13:47:20;3.00;;;1.13;;
55037;SDS011;40937;53.594;10.034;2024-02-23T13:49:48;4.90;;;1.10;;
55037;SDS011;40937;53.594;10.034;2024-02-23T13:52:16;3.63;;;1.35;;
55037;SDS011;40937;53.594;10.034;2024-02-23T13:54:47;3.03;;;0.93;;
55037;SDS011;40937;53.594;10.034;2024-02-23T13:57:19;5.50;;;1.15;;
55037;SDS011;40937;53.594;10.034;2024-02-23T13:59:47;2.55;;;1.13;;
55037;SDS011;40937;53.594;10.034;2024-02-23T14:02:15;1.83;;;1.10;;
55037;SDS011;40937;53.594;10.034;2024-02-23T14:04:50;2.03;;;1.00;;
55037;SDS011;40937;53.594;10.034;2024-02-23T14:07:20;2.72;;;1.10;;
55037;SDS011;40937;53.594;10.034;2024-02-23T14:09:48;3.28;;;1.30;;
55037;SDS011;40937;53.594;10.034;2024-02-23T14:12:18;4.40;;;0.98;;
55037;SDS011;40937;53.594;10.034;2024-02-23T14:14:48;3.25;;;1.17;;
55037;SDS011;40937;53.594;10.034;2024-02-23T14:17:17;1.77;;;1.52;;
55037;SDS011;40937;53.594;10.034;2024-02-23T14:19:44;4.40;;;1.30;;
55037;SDS011;40937;53.594;10.034;2024-02-23T14:22:14;3.20;;;1.30;;
55037;SDS011;40937;53.594;10.034;2024-02-23T14:24:42;1.58;;;1.13;;
55037;SDS011;40937;53.594;10.034;2024-02-23T14:27:13;2.10;;;1.00;;
55037;SDS011;40937;53.594;10.034;2024-02-23T14:29:41;2.95;;;1.15;;
55037;SDS011;40937;53.594;10.034;2024-02-23T14:32:08;3.40;;;1.20;;
55037;SDS011;40937;53.594;10.034;2024-02-23T14:34:36;1.30;;;0.80;;
55037;SDS011;40937;53.594;10.034;2024-02-23T14:37:09;5.07;;;1.48;;
55037;SDS011;40937;53.594;10.034;2024-02-23T14:39:39;3.95;;;1.30;;